Time;durP1;ratioP1;P1;durP2;ratioP2;P2;SDS_P1;SDS_P2;PMS_P1;PMS_P2;Temp;Humidity;BMP_temperature;BMP_pressure;BME280_temperature;BME280_humidity;BME280_pressure;Samples;Min_cycle;Max_cycle;Signal;HPM_P1;HPM_P2
2024/01/02 00:01:13;;;;;;;2.30;1.00;;;;;;;;;;5072580;28;20056;-33
2024/01/02 00:03:41;;;;;;;2.38;0.80;;;;;;;;;;5072541;28;20043;-33
2024/01/02 00:06:08;;;;;;;3.75;0.80;;;;;;;;;;5072383;28;20025;-33
2024/01/02 00:08:35;;;;;;;2.15;0.73;;;;;;;;;;5072394;28;20029;-33
2024/01/02 00:11:02;;;;;;;5.95;1.55;;;;;;;;;;5072329;28;20028;-33
2024/01/02 00:13:29;;;;;;;7.70;1.52;;;;;;;;;;5072358;28;20033;-33
2024/01/02 00:15:55;;;;;;;13.52;1.77;;;;;;;;;;5072098;28;20131;-33
2024/01/02 00:18:22;;;;;;;12.02;1.52;;;;;;;;;;5072301;28;20032;-33
2024/01/02 00:20:49;;;;;;;13.88;1.92;;;;;;;;;;5072248;28;20054;-33
2024/01/02 00:23:16;;;;;;;25.65;3.00;;;;;;;;;;5071073;28;20032;-33
2024/01/02 00:25:43;;;;;;;22.55;3.47;;;;;;;;;;5071913;28;20027;-34
2024/01/02 00:28:10;;;;;;;35.65;4.20;;;;;;;;;;5067428;28;20013;-37
2024/01/02 00:30:39;;;;;;;27.58;3.40;;;;;;;;;;5071816;28;20040;-37
2024/01/02 00:33:07;;;;;;;39.80;4.22;;;;;;;;;;5069924;28;20059;-35
2024/01/02 00:35:34;;;;;;;31.27;3.97;;;;;;;;;;5071535;28;20034;-35
2024/01/02 00:38:01;;;;;;;25.85;3.45;;;;;;;;;;5072501;28;20016;-35
2024/01/02 00:40:28;;;;;;;24.98;3.58;;;;;;;;;;5071693;28;20036;-37
2024/01/02 00:42:55;;;;;;;25.33;3.70;;;;;;;;;;5064182;28;20033;-38
2024/01/02 00:45:22;;;;;;;31.13;3.90;;;;;;;;;;5058414;28;20450;-37
2024/01/02 00:47:51;;;;;;;22.73;3.60;;;;;;;;;;5066685;28;20052;-37
2024/01/02 00:50:19;;;;;;;26.80;3.92;;;;;;;;;;5071380;28;20436;-37
2024/01/02 00:52:45;;;;;;;26.30;3.28;;;;;;;;;;5071708;28;20018;-37
2024/01/02 00:55:12;;;;;;;24.38;3.55;;;;;;;;;;5069793;28;20097;-37
2024/01/02 00:57:39;;;;;;;38.13;4.03;;;;;;;;;;5071516;28;20047;-37
2024/01/02 01:00:07;;;;;;;42.17;3.85;;;;;;;;;;5071667;28;20029;-37
2024/01/02 01:02:34;;;;;;;29.95;3.45;;;;;;;;;;5071868;28;20071;-37
2024/01/02 01:05:01;;;;;;;26.48;4.20;;;;;;;;;;5069530;28;20116;-37
2024/01/02 01:07:28;;;;;;;21.58;3.92;;;;;;;;;;5071265;28;20067;-37
2024/01/02 01:09:55;;;;;;;34.72;4.00;;;;;;;;;;5071630;28;20032;-37
2024/01/02 01:12:22;;;;;;;33.38;4.32;;;;;;;;;;5071549;28;20501;-38
2024/01/02 01:14:49;;;;;;;24.83;3.95;;;;;;;;;;5063044;28;20044;-37
2024/01/02 01:17:16;;;;;;;31.63;4.32;;;;;;;;;;5060477;28;20043;-37
2024/01/02 01:19:43;;;;;;;23.67;4.18;;;;;;;;;;5070961;28;20390;-37
2024/01/02 01:22:10;;;;;;;29.80;4.53;;;;;;;;;;5071446;28;20055;-37
2024/01/02 01:24:37;;;;;;;28.10;4.10;;;;;;;;;;5071237;28;20036;-37
2024/01/02 01:27:04;;;;;;;22.77;3.70;;;;;;;;;;5071568;28;20028;-37
2024/01/02 01:29:31;;;;;;;20.48;3.60;;;;;;;;;;5071067;28;20490;-38
2024/01/02 01:31:58;;;;;;;16.83;3.28;;;;;;;;;;5071204;28;20047;-37
2024/01/02 01:34:25;;;;;;;19.75;3.55;;;;;;;;;;5070296;28;20028;-38
2024/01/02 01:36:54;;;;;;;23.33;3.60;;;;;;;;;;5071480;28;20500;-37
2024/01/02 01:39:21;;;;;;;16.98;3.10;;;;;;;;;;5065966;28;20036;-37
2024/01/02 01:41:48;;;;;;;23.88;3.42;;;;;;;;;;5066530;28;20442;-37
2024/01/02 01:44:15;;;;;;;15.00;3.30;;;;;;;;;;5059909;28;20157;-37
2024/01/02 01:46:42;;;;;;;23.85;2.85;;;;;;;;;;5061598;28;20488;-37
2024/01/02 01:49:10;;;;;;;18.50;3.42;;;;;;;;;;5053273;28;20430;-37
2024/01/02 01:51:38;;;;;;;17.17;2.58;;;;;;;;;;5070611;28;20060;-36
2024/01/02 01:54:05;;;;;;;18.73;3.00;;;;;;;;;;5071359;28;20024;-36
2024/01/02 01:56:33;;;;;;;12.55;2.78;;;;;;;;;;5071384;28;20047;-36
2024/01/02 01:59:04;;;;;;;20.80;3.35;;;;;;;;;;5070231;28;20039;-36
2024/01/02 02:01:32;;;;;;;12.73;2.65;;;;;;;;;;5070030;28;20553;-37
2024/01/02 02:03:59;;;;;;;13.05;3.03;;;;;;;;;;5070134;28;20039;-37
2024/01/02 02:06:27;;;;;;;14.85;2.97;;;;;;;;;;5070266;28;20039;-36
2024/01/02 02:08:54;;;;;;;17.50;2.58;;;;;;;;;;5070678;28;20024;-36
2024/01/02 02:11:21;;;;;;;10.52;2.67;;;;;;;;;;5070579;28;20082;-36
2024/01/02 02:13:48;;;;;;;13.63;2.50;;;;;;;;;;5070447;28;20025;-36
2024/01/02 02:16:16;;;;;;;16.63;3.28;;;;;;;;;;5070547;28;20090;-37
2024/01/02 02:18:43;;;;;;;16.75;3.53;;;;;;;;;;5070489;28;20115;-37
2024/01/02 02:21:10;;;;;;;12.73;2.63;;;;;;;;;;5070622;28;20036;-37
2024/01/02 02:23:37;;;;;;;15.48;2.70;;;;;;;;;;5070630;28;20111;-37
2024/01/02 02:26:04;;;;;;;14.18;2.50;;;;;;;;;;5067490;28;20033;-37
2024/01/02 02:28:31;;;;;;;14.95;2.72;;;;;;;;;;5070526;28;20478;-37
2024/01/02 02:30:58;;;;;;;14.25;2.80;;;;;;;;;;5069984;28;20455;-37
2024/01/02 02:33:24;;;;;;;13.30;3.05;;;;;;;;;;5070542;28;20032;-36
2024/01/02 02:35:51;;;;;;;7.22;1.73;;;;;;;;;;5070062;28;20525;-36
2024/01/02 02:38:18;;;;;;;9.15;2.00;;;;;;;;;;5070316;28;20575;-36
2024/01/02 02:40:45;;;;;;;10.27;2.55;;;;;;;;;;5070952;28;20028;-36
2024/01/02 02:43:12;;;;;;;9.60;1.98;;;;;;;;;;5070961;28;20494;-36
2024/01/02 02:45:39;;;;;;;15.48;2.45;;;;;;;;;;5072888;28;20036;-36
2024/01/02 02:48:07;;;;;;;10.85;1.98;;;;;;;;;;5074254;28;20044;-36
2024/01/02 02:50:33;;;;;;;10.18;2.47;;;;;;;;;;5074411;28;20037;-37
2024/01/02 02:53:01;;;;;;;8.80;1.90;;;;;;;;;;5074328;28;20044;-36
2024/01/02 02:55:28;;;;;;;14.20;2.25;;;;;;;;;;5074059;28;20071;-36
2024/01/02 02:57:55;;;;;;;9.43;2.33;;;;;;;;;;5074391;28;20036;-36
2024/01/02 03:00:22;;;;;;;10.95;1.90;;;;;;;;;;5074027;28;20033;-36
2024/01/02 03:02:49;;;;;;;9.02;1.95;;;;;;;;;;5074193;28;20126;-37
2024/01/02 03:05:16;;;;;;;9.73;2.28;;;;;;;;;;5074216;28;20444;-36
2024/01/02 03:07:43;;;;;;;9.90;2.10;;;;;;;;;;5073861;28;20078;-36
2024/01/02 03:10:13;;;;;;;9.02;2.50;;;;;;;;;;5074167;28;20028;-36
2024/01/02 03:12:40;;;;;;;11.38;2.40;;;;;;;;;;5074155;28;20036;-36
2024/01/02 03:15:08;;;;;;;9.10;2.25;;;;;;;;;;5073932;28;20052;-37
2024/01/02 03:17:35;;;;;;;7.10;1.92;;;;;;;;;;5074079;28;20016;-36
2024/01/02 03:20:02;;;;;;;7.53;1.88;;;;;;;;;;5073817;28;20055;-37
2024/01/02 03:22:29;;;;;;;10.05;1.98;;;;;;;;;;5073884;28;20032;-36
2024/01/02 03:24:56;;;;;;;9.05;1.73;;;;;;;;;;5073828;28;20159;-36
2024/01/02 03:27:23;;;;;;;8.93;2.05;;;;;;;;;;5073940;28;20095;-37
2024/01/02 03:29:50;;;;;;;4.93;1.50;;;;;;;;;;5073759;28;20097;-36
2024/01/02 03:32:17;;;;;;;6.55;1.83;;;;;;;;;;5073776;28;20020;-36
2024/01/02 03:34:44;;;;;;;8.52;1.90;;;;;;;;;;5073412;28;20085;-36
2024/01/02 03:37:13;;;;;;;7.18;1.98;;;;;;;;;;5073815;28;20044;-36
2024/01/02 03:39:40;;;;;;;8.68;1.52;;;;;;;;;;5073595;28;20040;-36
2024/01/02 03:42:07;;;;;;;5.72;1.60;;;;;;;;;;5073619;28;20486;-36
2024/01/02 03:44:34;;;;;;;8.00;2.08;;;;;;;;;;5073410;28;20032;-36
2024/01/02 03:47:01;;;;;;;6.47;1.90;;;;;;;;;;5073178;28;20094;-36
2024/01/02 03:49:28;;;;;;;4.82;1.48;;;;;;;;;;5073498;28;20500;-36
2024/01/02 03:51:55;;;;;;;4.50;1.30;;;;;;;;;;5073341;28;20107;-36
2024/01/02 03:54:22;;;;;;;5.97;1.55;;;;;;;;;;5055160;28;20442;-36
2024/01/02 03:56:49;;;;;;;4.72;1.70;;;;;;;;;;5072528;28;20058;-36
2024/01/02 03:59:16;;;;;;;4.25;1.55;;;;;;;;;;5073073;28;20020;-36
2024/01/02 04:01:46;;;;;;;7.07;1.48;;;;;;;;;;5073025;28;20548;-36
2024/01/02 04:04:13;;;;;;;3.20;1.30;;;;;;;;;;5072900;28;20440;-36
2024/01/02 04:06:40;;;;;;;3.92;1.40;;;;;;;;;;5072907;28;20039;-36
2024/01/02 04:09:08;;;;;;;5.40;1.70;;;;;;;;;;5073026;28;20031;-36
2024/01/02 04:11:35;;;;;;;5.10;1.42;;;;;;;;;;5072907;28;20467;-36
2024/01/02 04:14:01;;;;;;;6.82;1.70;;;;;;;;;;5072670;28;20069;-36
2024/01/02 04:16:28;;;;;;;4.45;1.60;;;;;;;;;;5072835;28;20037;-36
2024/01/02 04:18:55;;;;;;;5.70;1.60;;;;;;;;;;5072832;28;20120;-36
2024/01/02 04:21:22;;;;;;;5.20;1.13;;;;;;;;;;5073050;28;20473;-36
2024/01/02 04:23:49;;;;;;;3.78;1.35;;;;;;;;;;5072558;28;20501;-36
2024/01/02 04:26:16;;;;;;;7.10;1.80;;;;;;;;;;5072687;28;20029;-36
2024/01/02 04:28:43;;;;;;;8.15;1.73;;;;;;;;;;5072372;28;20085;-36
2024/01/02 04:31:11;;;;;;;6.88;1.48;;;;;;;;;;5072583;28;20057;-36
2024/01/02 04:33:38;;;;;;;4.85;1.58;;;;;;;;;;5072389;28;20047;-36
2024/01/02 04:36:05;;;;;;;3.00;1.27;;;;;;;;;;5072441;28;20040;-36
2024/01/02 04:38:32;;;;;;;5.68;1.48;;;;;;;;;;5072541;28;20393;-36
2024/01/02 04:40:59;;;;;;;6.25;1.50;;;;;;;;;;5072438;28;20424;-36
2024/01/02 04:43:29;;;;;;;5.75;1.35;;;;;;;;;;5072403;28;20024;-36
2024/01/02 04:45:56;;;;;;;3.22;1.20;;;;;;;;;;5072115;28;20494;-37
2024/01/02 04:48:23;;;;;;;5.13;1.50;;;;;;;;;;5072109;28;20037;-36
2024/01/02 04:50:50;;;;;;;5.07;1.30;;;;;;;;;;5072336;28;20028;-36
2024/01/02 04:53:17;;;;;;;5.75;1.20;;;;;;;;;;5072082;28;20024;-36
2024/01/02 04:55:44;;;;;;;3.92;1.48;;;;;;;;;;5071934;28;20045;-36
2024/01/02 04:58:10;;;;;;;4.18;1.40;;;;;;;;;;5072109;28;20086;-36
2024/01/02 05:00:37;;;;;;;4.25;1.30;;;;;;;;;;5072148;28;20086;-36
2024/01/02 05:03:05;;;;;;;2.72;1.00;;;;;;;;;;5071834;28;20460;-36
2024/01/02 05:05:31;;;;;;;2.78;1.00;;;;;;;;;;5071776;28;20423;-36
2024/01/02 05:07:59;;;;;;;3.75;1.23;;;;;;;;;;5071279;28;20526;-36
2024/01/02 05:10:26;;;;;;;4.50;1.35;;;;;;;;;;5071765;28;20033;-36
2024/01/02 05:12:53;;;;;;;3.38;1.30;;;;;;;;;;5072123;28;20047;-36
2024/01/02 05:15:20;;;;;;;4.07;1.15;;;;;;;;;;5071508;28;20385;-36
2024/01/02 05:17:47;;;;;;;3.88;1.00;;;;;;;;;;5071909;28;20386;-36
2024/01/02 05:20:14;;;;;;;2.35;1.08;;;;;;;;;;5071732;28;20486;-36
2024/01/02 05:22:41;;;;;;;2.63;0.80;;;;;;;;;;5071778;28;20070;-36
2024/01/02 05:25:09;;;;;;;3.08;1.02;;;;;;;;;;5071778;28;20039;-36
2024/01/02 05:27:36;;;;;;;5.20;1.02;;;;;;;;;;5071468;28;20436;-36
2024/01/02 05:30:03;;;;;;;3.35;1.10;;;;;;;;;;5071704;28;20537;-36
2024/01/02 05:32:30;;;;;;;4.07;1.02;;;;;;;;;;5071691;28;20491;-36
2024/01/02 05:34:57;;;;;;;3.33;1.02;;;;;;;;;;5071408;28;20062;-36
2024/01/02 05:37:24;;;;;;;2.53;0.90;;;;;;;;;;5071478;28;20394;-36
2024/01/02 05:39:51;;;;;;;1.90;0.82;;;;;;;;;;5071552;28;20032;-36
2024/01/02 05:42:18;;;;;;;2.60;1.20;;;;;;;;;;5071637;28;20541;-36
2024/01/02 05:44:45;;;;;;;3.33;1.13;;;;;;;;;;5071395;28;20028;-36
2024/01/02 05:47:12;;;;;;;3.58;1.33;;;;;;;;;;5071171;28;20135;-36
2024/01/02 05:49:39;;;;;;;3.70;1.05;;;;;;;;;;5071533;28;20086;-36
2024/01/02 05:52:06;;;;;;;3.22;1.25;;;;;;;;;;5071288;28;20036;-36
2024/01/02 05:54:33;;;;;;;3.90;1.00;;;;;;;;;;5071137;28;20482;-36
2024/01/02 05:57:01;;;;;;;2.22;0.90;;;;;;;;;;5071240;28;20029;-36
2024/01/02 05:59:28;;;;;;;2.17;0.80;;;;;;;;;;5071442;28;20036;-36
2024/01/02 06:01:54;;;;;;;2.33;0.80;;;;;;;;;;5071437;28;20418;-36
2024/01/02 06:04:21;;;;;;;2.40;1.10;;;;;;;;;;5071222;28;20029;-36
2024/01/02 06:06:48;;;;;;;3.08;0.90;;;;;;;;;;5071415;28;20047;-36
2024/01/02 06:09:15;;;;;;;2.13;0.90;;;;;;;;;;5071261;28;20032;-36
2024/01/02 06:11:42;;;;;;;2.90;1.05;;;;;;;;;;5071170;28;20372;-36
2024/01/02 06:14:11;;;;;;;1.90;0.98;;;;;;;;;;5070971;28;20086;-36
2024/01/02 06:16:39;;;;;;;3.15;0.80;;;;;;;;;;5071103;28;20123;-37
2024/01/02 06:19:06;;;;;;;1.88;0.80;;;;;;;;;;5071237;28;20035;-37
2024/01/02 06:21:33;;;;;;;2.90;1.15;;;;;;;;;;5074897;28;20086;-36
2024/01/02 06:24:00;;;;;;;2.50;0.90;;;;;;;;;;5074958;28;20104;-37
2024/01/02 06:26:27;;;;;;;2.92;0.70;;;;;;;;;;5074906;28;20107;-37
2024/01/02 06:28:54;;;;;;;3.35;1.02;;;;;;;;;;5075238;28;20025;-37
2024/01/02 06:31:21;;;;;;;2.20;0.70;;;;;;;;;;5074648;28;20032;-36
2024/01/02 06:33:48;;;;;;;1.83;0.68;;;;;;;;;;5074664;28;20104;-36
2024/01/02 06:36:15;;;;;;;1.65;0.70;;;;;;;;;;5074765;28;20049;-37
2024/01/02 06:38:42;;;;;;;1.92;0.73;;;;;;;;;;5074835;28;20425;-37
2024/01/02 06:41:09;;;;;;;4.00;1.00;;;;;;;;;;5074612;28;20140;-37
2024/01/02 06:43:36;;;;;;;2.58;1.00;;;;;;;;;;5074511;28;20072;-36
2024/01/02 06:46:03;;;;;;;1.77;0.70;;;;;;;;;;5074339;28;20025;-36
2024/01/02 06:48:30;;;;;;;2.22;0.82;;;;;;;;;;5074350;28;20043;-37
2024/01/02 06:50:58;;;;;;;3.08;0.95;;;;;;;;;;5074449;28;20028;-36
2024/01/02 06:53:24;;;;;;;1.73;0.70;;;;;;;;;;5074429;28;20070;-37
2024/01/02 06:55:51;;;;;;;1.35;0.88;;;;;;;;;;5074544;28;20397;-36
2024/01/02 06:58:18;;;;;;;1.83;0.60;;;;;;;;;;5074235;28;20035;-36
2024/01/02 07:00:50;;;;;;;1.95;0.88;;;;;;;;;;5074449;28;20045;-37
2024/01/02 07:03:17;;;;;;;3.60;0.82;;;;;;;;;;5074299;28;20036;-36
2024/01/02 07:05:44;;;;;;;2.22;0.82;;;;;;;;;;5086331;28;20047;-36
2024/01/02 07:08:11;;;;;;;1.42;0.73;;;;;;;;;;5094525;28;20027;-37
2024/01/02 07:10:38;;;;;;;1.73;0.70;;;;;;;;;;5094455;28;20054;-36
2024/01/02 07:13:05;;;;;;;3.15;0.90;;;;;;;;;;5094115;28;20516;-36
2024/01/02 07:15:32;;;;;;;1.88;0.90;;;;;;;;;;5094230;28;20044;-37
2024/01/02 07:17:59;;;;;;;2.70;0.90;;;;;;;;;;5094413;28;20488;-36
2024/01/02 07:20:25;;;;;;;2.47;0.90;;;;;;;;;;5094094;28;20104;-36
2024/01/02 07:22:53;;;;;;;3.53;1.10;;;;;;;;;;5094183;28;20035;-36
2024/01/02 07:25:19;;;;;;;3.45;1.02;;;;;;;;;;5093923;28;20032;-36
2024/01/02 07:27:46;;;;;;;2.35;0.90;;;;;;;;;;5093994;28;20078;-36
2024/01/02 07:30:13;;;;;;;2.88;0.93;;;;;;;;;;5094062;28;20051;-36
2024/01/02 07:32:40;;;;;;;2.28;0.80;;;;;;;;;;5092969;28;20043;-36
2024/01/02 07:35:08;;;;;;;4.18;0.82;;;;;;;;;;5093560;28;20084;-36
2024/01/02 07:37:35;;;;;;;1.98;0.90;;;;;;;;;;5093977;28;20401;-36
2024/01/02 07:40:02;;;;;;;2.55;0.88;;;;;;;;;;5093753;28;20039;-36
2024/01/02 07:42:29;;;;;;;3.17;0.85;;;;;;;;;;5093730;28;20032;-36
2024/01/02 07:44:56;;;;;;;3.55;1.00;;;;;;;;;;5093665;28;20398;-36
2024/01/02 07:47:23;;;;;;;2.70;0.80;;;;;;;;;;5093366;28;20048;-36
2024/01/02 07:49:50;;;;;;;2.63;0.80;;;;;;;;;;5093699;28;20035;-36
2024/01/02 07:52:17;;;;;;;2.40;0.80;;;;;;;;;;5093505;28;20039;-36
2024/01/02 07:54:44;;;;;;;2.63;0.82;;;;;;;;;;5093431;28;20099;-36
2024/01/02 07:57:11;;;;;;;1.65;0.80;;;;;;;;;;5093604;28;20031;-36
2024/01/02 07:59:38;;;;;;;1.48;0.70;;;;;;;;;;5093423;28;20106;-36
2024/01/02 08:02:05;;;;;;;2.53;0.70;;;;;;;;;;5093522;28;20031;-36
2024/01/02 08:04:32;;;;;;;3.47;0.88;;;;;;;;;;5093244;28;20032;-36
2024/01/02 08:07:01;;;;;;;3.20;0.90;;;;;;;;;;5093451;28;20393;-36
2024/01/02 08:09:28;;;;;;;1.70;0.70;;;;;;;;;;5093239;28;20038;-36
2024/01/02 08:11:56;;;;;;;2.60;0.70;;;;;;;;;;5093149;28;20099;-36
2024/01/02 08:14:23;;;;;;;1.45;0.70;;;;;;;;;;5093037;28;20032;-36
2024/01/02 08:16:50;;;;;;;1.02;0.68;;;;;;;;;;5093185;28;20071;-36
2024/01/02 08:19:17;;;;;;;1.13;0.60;;;;;;;;;;5093002;28;20039;-36
2024/01/02 08:21:44;;;;;;;2.22;0.90;;;;;;;;;;5093060;28;20420;-36
2024/01/02 08:24:11;;;;;;;1.88;0.70;;;;;;;;;;5092814;28;20059;-37
2024/01/02 08:26:38;;;;;;;1.90;0.70;;;;;;;;;;5093254;28;20036;-36
2024/01/02 08:29:05;;;;;;;2.28;0.80;;;;;;;;;;5092899;28;20500;-36
2024/01/02 08:31:32;;;;;;;1.63;0.73;;;;;;;;;;5092997;28;20557;-36
2024/01/02 08:33:59;;;;;;;0.88;0.50;;;;;;;;;;5092793;28;20024;-36
2024/01/02 08:36:26;;;;;;;1.90;0.70;;;;;;;;;;5092900;28;20402;-36
2024/01/02 08:38:53;;;;;;;2.58;0.70;;;;;;;;;;5092808;28;20363;-36
2024/01/02 08:41:20;;;;;;;2.72;1.08;;;;;;;;;;5092837;28;20477;-36
2024/01/02 08:43:47;;;;;;;1.65;0.65;;;;;;;;;;5092402;28;20495;-37
2024/01/02 08:46:14;;;;;;;1.13;0.55;;;;;;;;;;5092362;28;20097;-36
2024/01/02 08:48:41;;;;;;;1.85;0.68;;;;;;;;;;5092768;28;20016;-36
2024/01/02 08:51:08;;;;;;;1.42;0.63;;;;;;;;;;5092674;28;20027;-36
2024/01/02 08:53:35;;;;;;;1.80;0.73;;;;;;;;;;5092603;28;20020;-36
2024/01/02 08:56:02;;;;;;;2.22;0.68;;;;;;;;;;5092556;28;20031;-36
2024/01/02 08:58:29;;;;;;;1.02;0.50;;;;;;;;;;5092345;28;20039;-36
2024/01/02 09:00:56;;;;;;;1.60;0.77;;;;;;;;;;5092565;28;20023;-36
2024/01/02 09:03:23;;;;;;;1.80;0.60;;;;;;;;;;5092379;28;20024;-36
2024/01/02 09:05:50;;;;;;;1.77;0.70;;;;;;;;;;5092245;28;20039;-36
2024/01/02 09:08:17;;;;;;;1.42;0.50;;;;;;;;;;5092294;28;20027;-37
2024/01/02 09:10:44;;;;;;;1.65;0.60;;;;;;;;;;5092309;28;20027;-36
2024/01/02 09:13:11;;;;;;;1.70;0.50;;;;;;;;;;5092221;28;20024;-37
2024/01/02 09:15:39;;;;;;;1.80;0.60;;;;;;;;;;5092045;28;20075;-36
2024/01/02 09:18:06;;;;;;;2.60;0.70;;;;;;;;;;5092214;28;20028;-36
2024/01/02 09:20:34;;;;;;;1.42;0.82;;;;;;;;;;5092306;28;20102;-36
2024/01/02 09:23:01;;;;;;;1.88;0.70;;;;;;;;;;5091975;28;20042;-36
2024/01/02 09:25:28;;;;;;;0.68;0.52;;;;;;;;;;5092085;28;20020;-36
2024/01/02 09:27:57;;;;;;;1.90;0.70;;;;;;;;;;5091978;28;20035;-36
2024/01/02 09:30:24;;;;;;;1.23;0.60;;;;;;;;;;5091893;28;20115;-37
2024/01/02 09:32:51;;;;;;;2.45;0.90;;;;;;;;;;5091867;28;20036;-36
2024/01/02 09:35:18;;;;;;;1.80;0.70;;;;;;;;;;5091677;28;20040;-37
2024/01/02 09:37:45;;;;;;;2.72;1.00;;;;;;;;;;5091933;28;20024;-36
2024/01/02 09:40:17;;;;;;;1.85;0.63;;;;;;;;;;5091915;28;20103;-36
2024/01/02 09:42:44;;;;;;;;;;;;;;;;;;5092225;28;20457;-36
2024/01/02 09:45:19;;;;;;;2.67;0.57;;;;;;;;;;5091627;28;19946;-36
2024/01/02 09:47:46;;;;;;;1.98;0.85;;;;;;;;;;5091457;28;20060;-37
2024/01/02 09:50:36;;;;;;;1.25;0.80;;;;;;;;;;5091822;28;20430;-36
2024/01/02 09:53:21;;;;;;;1.15;0.63;;;;;;;;;;5091815;28;20073;-36
2024/01/02 09:55:52;;;;;;;1.50;0.50;;;;;;;;;;5094394;28;20428;-36
2024/01/02 09:58:24;;;;;;;1.77;0.70;;;;;;;;;;5095682;28;20059;-36
2024/01/02 10:00:51;;;;;;;1.67;0.85;;;;;;;;;;5095792;28;20043;-36
2024/01/02 10:03:43;;;;;;;1.23;0.70;;;;;;;;;;5095836;28;20084;-36
2024/01/02 10:06:10;;;;;;;;;;;;;;;;;;5096217;28;20486;-36
2024/01/02 10:08:45;;;;;;;1.77;0.60;;;;;;;;;;5095653;28;19912;-36
2024/01/02 10:11:18;;;;;;;1.67;0.75;;;;;;;;;;5095603;28;20032;-36
2024/01/02 10:13:48;;;;;;;0.75;0.50;;;;;;;;;;5095477;28;20085;-36
2024/01/02 10:16:15;;;;;;;1.85;0.70;;;;;;;;;;5095574;28;20032;-36
2024/01/02 10:19:01;;;;;;;1.75;0.68;;;;;;;;;;5095596;28;20020;-36
2024/01/02 10:21:43;;;;;;;3.20;0.90;;;;;;;;;;5095389;28;20478;-36
2024/01/02 10:24:23;;;;;;;2.65;0.82;;;;;;;;;;5095377;28;20024;-36
2024/01/02 10:27:10;;;;;;;1.00;0.50;;;;;;;;;;5095432;28;20040;-36
2024/01/02 10:29:40;;;;;;;1.90;0.80;;;;;;;;;;5095449;28;20024;-36
2024/01/02 10:32:11;;;;;;;2.65;0.70;;;;;;;;;;5095216;28;20111;-36
2024/01/02 10:34:43;;;;;;;1.70;0.77;;;;;;;;;;5095053;28;20040;-36
2024/01/02 10:37:13;;;;;;;2.15;0.70;;;;;;;;;;5095285;28;20063;-36
2024/01/02 10:39:51;;;;;;;0.80;0.50;;;;;;;;;;5095050;28;20040;-36
2024/01/02 10:42:21;;;;;;;0.90;0.57;;;;;;;;;;5095003;28;20489;-36
2024/01/02 10:44:58;;;;;;;1.85;0.70;;;;;;;;;;5094957;28;20031;-36
2024/01/02 10:47:35;;;;;;;1.33;0.57;;;;;;;;;;5094857;28;20087;-36
2024/01/02 10:50:04;;;;;;;2.25;0.60;;;;;;;;;;5094991;28;20099;-36
2024/01/02 10:52:52;;;;;;;2.35;0.73;;;;;;;;;;5095010;28;20024;-36
2024/01/02 10:55:23;;;;;;;1.90;0.70;;;;;;;;;;5094756;28;20040;-36
2024/01/02 10:58:10;;;;;;;1.15;0.60;;;;;;;;;;5094893;28;20031;-36
2024/01/02 11:00:45;;;;;;;3.42;0.65;;;;;;;;;;5094680;28;20032;-36
2024/01/02 11:03:12;;;;;;;1.65;0.80;;;;;;;;;;5094410;28;20493;-36
2024/01/02 11:05:42;;;;;;;1.38;0.60;;;;;;;;;;5094682;28;20028;-36
2024/01/02 11:08:28;;;;;;;2.10;0.85;;;;;;;;;;5094673;28;20031;-37
2024/01/02 11:10:58;;;;;;;0.68;0.40;;;;;;;;;;5094652;28;20067;-37
2024/01/02 11:13:30;;;;;;;1.98;0.60;;;;;;;;;;5094261;28;20545;-36
2024/01/02 11:15:59;;;;;;;1.70;0.80;;;;;;;;;;5094483;28;20040;-37
2024/01/02 11:18:27;;;;;;;0.80;0.50;;;;;;;;;;5094236;28;20489;-37
2024/01/02 11:21:13;;;;;;;2.30;0.60;;;;;;;;;;5093984;28;20036;-37
2024/01/02 11:23:44;;;;;;;1.63;0.80;;;;;;;;;;5092512;28;20032;-36
2024/01/02 11:26:12;;;;;;;1.10;0.55;;;;;;;;;;5093692;28;20028;-37
2024/01/02 11:28:41;;;;;;;1.45;0.55;;;;;;;;;;5094091;28;20429;-37
2024/01/02 11:31:10;;;;;;;1.33;0.50;;;;;;;;;;5094256;28;20532;-37
2024/01/02 11:33:55;;;;;;;2.42;0.68;;;;;;;;;;5094068;28;20024;-37
2024/01/02 11:36:22;;;;;;;1.92;0.60;;;;;;;;;;5093913;28;20036;-37
2024/01/02 11:38:51;;;;;;;0.93;0.40;;;;;;;;;;5094129;28;20099;-36
2024/01/02 11:41:26;;;;;;;3.33;0.57;;;;;;;;;;5093899;28;20032;-36
2024/01/02 11:43:55;;;;;;;1.73;0.70;;;;;;;;;;5093547;28;20844;-37
2024/01/02 11:46:25;;;;;;;2.40;0.60;;;;;;;;;;5093290;28;20052;-37
2024/01/02 11:48:52;;;;;;;0.95;0.65;;;;;;;;;;5093577;28;20102;-36
2024/01/02 11:51:18;;;;;;;1.40;0.60;;;;;;;;;;5093700;28;20036;-37
2024/01/02 11:53:57;;;;;;;2.50;0.60;;;;;;;;;;5093713;28;20028;-36
2024/01/02 11:56:25;;;;;;;4.53;0.57;;;;;;;;;;5093716;28;20131;-36
2024/01/02 11:58:52;;;;;;;1.80;0.70;;;;;;;;;;5093648;28;20374;-36
2024/01/02 12:01:28;;;;;;;2.05;0.55;;;;;;;;;;5093474;28;20114;-36
2024/01/02 12:04:02;;;;;;;1.50;0.57;;;;;;;;;;5093690;28;20111;-36
2024/01/02 12:06:49;;;;;;;1.50;0.60;;;;;;;;;;5093581;28;20133;-36
2024/01/02 12:09:19;;;;;;;2.38;0.50;;;;;;;;;;5093261;28;20107;-36
2024/01/02 12:12:00;;;;;;;3.42;0.70;;;;;;;;;;5093373;28;20028;-37
2024/01/02 12:14:27;;;;;;;2.30;0.70;;;;;;;;;;5092821;28;20027;-37
2024/01/02 12:16:54;;;;;;;1.08;0.60;;;;;;;;;;5092451;28;20034;-37
2024/01/02 12:19:23;;;;;;;2.53;0.65;;;;;;;;;;5092796;28;20431;-37
2024/01/02 12:21:51;;;;;;;3.10;0.70;;;;;;;;;;5093131;28;20027;-37
2024/01/02 12:24:18;;;;;;;1.40;0.73;;;;;;;;;;5093018;28;20076;-36
2024/01/02 12:26:47;;;;;;;9.45;1.20;;;;;;;;;;5093096;28;20040;-37
2024/01/02 12:29:22;;;;;;;3.50;0.98;;;;;;;;;;5092981;28;20107;-36
2024/01/02 12:31:58;;;;;;;5.57;1.00;;;;;;;;;;5093063;28;20016;-36
2024/01/02 12:34:32;;;;;;;7.00;1.17;;;;;;;;;;5092948;28;20111;-36
2024/01/02 12:37:13;;;;;;;4.95;1.00;;;;;;;;;;5092807;28;20032;-36
2024/01/02 12:39:40;;;;;;;7.45;1.23;;;;;;;;;;5092425;28;20102;-36
2024/01/02 12:42:13;;;;;;;4.43;0.90;;;;;;;;;;5092826;28;20032;-36
2024/01/02 12:44:46;;;;;;;7.32;0.90;;;;;;;;;;5092573;28;20040;-37
2024/01/02 12:47:14;;;;;;;5.45;1.08;;;;;;;;;;5092544;28;20148;-37
2024/01/02 12:49:52;;;;;;;6.97;1.50;;;;;;;;;;5092734;28;20801;-37
2024/01/02 12:52:19;;;;;;;6.97;1.25;;;;;;;;;;5092726;28;20464;-37
2024/01/02 12:54:51;;;;;;;6.65;1.00;;;;;;;;;;5074327;28;20386;-37
2024/01/02 12:57:20;;;;;;;9.17;1.10;;;;;;;;;;5092584;28;20031;-37
2024/01/02 12:59:47;;;;;;;5.57;1.10;;;;;;;;;;5092430;28;20036;-36
2024/01/02 13:02:14;;;;;;;14.65;1.80;;;;;;;;;;5092384;28;20032;-36
2024/01/02 13:04:42;;;;;;;7.53;1.05;;;;;;;;;;5092243;28;20154;-36
2024/01/02 13:07:11;;;;;;;6.93;1.42;;;;;;;;;;5092338;28;20040;-36
2024/01/02 13:09:39;;;;;;;10.25;1.30;;;;;;;;;;5092577;28;20363;-36
2024/01/02 13:12:08;;;;;;;11.25;1.40;;;;;;;;;;5092363;28;20035;-36
2024/01/02 13:14:36;;;;;;;7.80;1.40;;;;;;;;;;5092262;28;20107;-36
2024/01/02 13:17:04;;;;;;;6.45;1.20;;;;;;;;;;5092220;28;20535;-36
2024/01/02 13:19:31;;;;;;;6.50;1.48;;;;;;;;;;5091998;28;20059;-36
2024/01/02 13:21:58;;;;;;;8.07;1.40;;;;;;;;;;5092207;28;20032;-36
2024/01/02 13:24:25;;;;;;;7.43;1.40;;;;;;;;;;5092094;28;20107;-36
2024/01/02 13:26:52;;;;;;;8.20;1.60;;;;;;;;;;5092100;28;20036;-36
2024/01/02 13:29:20;;;;;;;6.68;1.25;;;;;;;;;;5091074;28;20039;-36
2024/01/02 13:31:53;;;;;;;7.18;1.20;;;;;;;;;;5092025;28;20094;-36
2024/01/02 13:34:27;;;;;;;9.32;1.40;;;;;;;;;;5091806;28;20106;-36
2024/01/02 13:36:57;;;;;;;6.45;1.10;;;;;;;;;;5091881;28;20081;-37
2024/01/02 13:39:50;;;;;;;7.22;1.40;;;;;;;;;;5091768;28;20108;-36
2024/01/02 13:42:31;;;;;;;4.88;1.30;;;;;;;;;;5089336;28;20044;-36
2024/01/02 13:44:58;;;;;;;6.15;1.45;;;;;;;;;;5091730;28;20039;-36
2024/01/02 13:47:29;;;;;;;6.03;1.17;;;;;;;;;;5091577;28;20056;-36
2024/01/02 13:49:56;;;;;;;8.25;1.55;;;;;;;;;;5091661;28;20034;-36
2024/01/02 13:52:28;;;;;;;6.32;1.27;;;;;;;;;;5091796;28;20032;-36
2024/01/02 13:54:56;;;;;;;3.80;1.50;;;;;;;;;;5091663;28;20024;-36
2024/01/02 13:57:29;;;;;;;3.65;1.15;;;;;;;;;;5091786;28;20031;-36
2024/01/02 14:00:16;;;;;;;6.32;1.33;;;;;;;;;;5091705;28;20111;-36
2024/01/02 14:02:48;;;;;;;3.08;1.30;;;;;;;;;;5091467;28;20040;-36
2024/01/02 14:05:15;;;;;;;4.47;1.45;;;;;;;;;;5091618;28;20110;-36
2024/01/02 14:07:43;;;;;;;4.75;1.23;;;;;;;;;;5091670;28;20016;-36
2024/01/02 14:10:10;;;;;;;2.85;1.13;;;;;;;;;;5091436;28;20085;-36
2024/01/02 14:12:38;;;;;;;3.90;1.20;;;;;;;;;;5091641;28;20038;-36
2024/01/02 14:15:08;;;;;;;5.50;1.25;;;;;;;;;;5091385;28;20090;-36
2024/01/02 14:17:36;;;;;;;3.03;1.30;;;;;;;;;;5091511;28;20036;-36
2024/01/02 14:20:07;;;;;;;3.78;1.30;;;;;;;;;;5091420;28;20098;-36
2024/01/02 14:22:54;;;;;;;4.78;1.20;;;;;;;;;;5091552;28;20085;-36
2024/01/02 14:25:43;;;;;;;3.45;1.05;;;;;;;;;;5091638;28;20032;-36
2024/01/02 14:28:29;;;;;;;4.72;1.27;;;;;;;;;;5091468;28;20024;-36
2024/01/02 14:31:31;;;;;;;4.32;1.25;;;;;;;;;;5091538;28;20359;-36
2024/01/02 14:34:13;;;;;;;4.75;1.23;;;;;;;;;;5029027;28;20037;-36
2024/01/02 14:36:46;;;;;;;4.60;1.02;;;;;;;;;;5085295;28;20490;-36
2024/01/02 14:39:13;;;;;;;4.78;1.10;;;;;;;;;;5091383;28;20123;-36
2024/01/02 14:41:52;;;;;;;3.38;1.20;;;;;;;;;;5093658;28;20489;-36
2024/01/02 14:44:40;;;;;;;6.30;1.40;;;;;;;;;;5095053;28;20039;-36
2024/01/02 14:47:15;;;;;;;4.00;1.20;;;;;;;;;;5094780;28;20570;-36
2024/01/02 14:49:45;;;;;;;4.32;1.50;;;;;;;;;;5095101;28;20028;-36
2024/01/02 14:52:26;;;;;;;3.50;1.02;;;;;;;;;;5095014;28;20036;-36